createdAt,value
2023-01-30T00:01:17.987Z,100004.52
2023-01-30T00:02:27.080Z,100007.22
2023-01-30T00:03:35.759Z,99999.23
2023-01-30T00:04:44.753Z,100001.92
2023-01-30T00:05:54.312Z,99989.65
2023-01-30T00:07:03.527Z,99995.84
2023-01-30T00:08:12.397Z,99996.73
2023-01-30T00:09:21.793Z,100001.17
2023-01-30T00:10:30.829Z,100004.06
2023-01-30T00:11:40.205Z,100003.20
2023-01-30T00:12:48.765Z,100004.92
2023-01-30T00:13:57.437Z,100001.52
2023-01-30T00:15:08.656Z,100004.20
2023-01-30T00:16:18.251Z,100000.02
2023-01-30T00:17:29.147Z,100000.25
2023-01-30T00:18:38.060Z,100000.16
2023-01-30T00:19:46.613Z,100001.81
2023-01-30T00:21:00.597Z,99991.06
2023-01-30T00:22:09.193Z,99997.98
2023-01-30T00:23:18.216Z,99981.14
2023-01-30T00:24:26.833Z,99984.57
2023-01-30T00:25:36.175Z,99980.38
2023-01-30T00:26:46.274Z,99988.46
2023-01-30T00:27:57.076Z,99987.56
2023-01-30T00:29:06.645Z,99980.72
2023-01-30T00:30:16.815Z,99979.45
2023-01-30T00:31:25.793Z,99978.47
2023-01-30T00:32:34.417Z,99981.96
2023-01-30T00:33:43.624Z,99981.96
2023-01-30T00:34:53.264Z,99976.97
2023-01-30T00:37:17.920Z,99972.14
2023-01-30T00:38:26.707Z,99977.63
2023-01-30T00:39:35.726Z,99979.37
2023-01-30T00:40:45.474Z,99976.57
2023-01-30T00:42:13.227Z,99982.62
2023-01-30T00:43:40.061Z,99977.24
2023-01-30T00:45:09.075Z,99971.25
2023-01-30T00:46:52.453Z,99967.72
2023-01-30T00:48:03.043Z,99969.45
2023-01-30T00:49:12.771Z,99972.95
2023-01-30T00:50:21.650Z,99973.80
2023-01-30T00:51:30.607Z,99969.25
2023-01-30T00:52:41.344Z,99968.27
2023-01-30T00:53:50.894Z,99964.63
2023-01-30T00:55:01.342Z,99957.64
2023-01-30T00:56:10.025Z,99957.59
2023-01-30T00:57:19.144Z,99964.03
2023-01-30T00:58:28.058Z,99965.77
2023-01-30T00:59:37.101Z,99950.72
2023-01-30T01:00:46.932Z,99952.41
2023-01-30T01:01:56.185Z,99946.08
2023-01-30T01:03:05.869Z,99944.94
2023-01-30T01:04:15.271Z,99940.45
2023-01-30T01:05:25.345Z,99935.36
2023-01-30T01:06:34.689Z,99933.63
2023-01-30T01:07:45.483Z,99931.98
2023-01-30T01:08:54.815Z,99929.29
2023-01-30T01:10:04.834Z,99931.77
2023-01-30T01:11:15.795Z,99928.39
2023-01-30T01:12:24.734Z,99929.34
2023-01-30T01:13:34.452Z,99927.59
2023-01-30T01:14:43.627Z,99926.89
2023-01-30T01:15:53.920Z,99926.75
2023-01-30T01:17:03.356Z,99923.06
2023-01-30T01:18:12.663Z,99919.51
2023-01-30T01:19:21.881Z,99921.02
2023-01-30T01:20:32.484Z,99923.70
2023-01-30T01:21:41.558Z,99929.74
2023-01-30T01:22:53.408Z,99926.15
2023-01-30T01:24:02.665Z,99924.34
2023-01-30T01:25:13.019Z,99933.08
2023-01-30T01:26:22.635Z,99927.59
2023-01-30T01:27:32.493Z,99917.77
2023-01-30T01:28:41.075Z,99917.97
2023-01-30T01:29:52.130Z,99915.38
2023-01-30T01:31:11.241Z,99911.73
2023-01-30T01:33:37.111Z,99910.27
2023-01-30T01:34:45.733Z,99914.77
2023-01-30T01:35:58.435Z,99912.91
2023-01-30T01:37:07.287Z,99908.52
2023-01-30T01:38:18.188Z,99912.02
2023-01-30T01:39:29.682Z,99912.86
2023-01-30T01:40:57.555Z,99905.66
2023-01-30T01:42:11.467Z,99908.25
2023-01-30T01:43:24.436Z,99909.89
2023-01-30T04:00:05.181Z,99782.03
2023-01-30T04:02:31.420Z,99775.06
2023-01-30T04:03:42.892Z,99775.11
2023-01-30T04:04:53.726Z,99773.11
2023-01-30T04:06:03.322Z,99778.98
2023-01-30T04:07:13.673Z,99775.21
2023-01-30T04:08:23.768Z,99767.19
2023-01-30T04:09:33.338Z,99774.05
2023-01-30T04:10:44.053Z,99779.11
2023-01-30T04:11:53.719Z,99777.11
2023-01-30T04:13:02.605Z,99769.06
2023-01-30T04:14:19.921Z,99767.12
2023-01-30T04:15:34.192Z,99772.33
2023-01-30T04:17:02.057Z,99765.98
2023-01-30T04:18:30.404Z,99764.91
2023-01-30T04:21:02.108Z,99755.50
2023-01-30T04:22:13.394Z,99758.45
2023-01-30T04:23:22.829Z,99758.45
2023-01-30T04:24:32.597Z,99757.64
2023-01-30T04:25:41.233Z,99767.44
2023-01-30T04:26:53.362Z,99765.03
2023-01-30T04:28:03.329Z,99770.30
2023-01-30T04:29:14.908Z,99770.30
2023-01-30T04:30:24.772Z,99771.27
2023-01-30T04:31:35.452Z,99773.95
2023-01-30T04:32:46.329Z,99770.48
2023-01-30T04:33:55.196Z,99773.07
2023-01-30T04:35:05.132Z,99770.32
2023-01-30T04:36:14.508Z,99771.95
2023-01-30T04:37:24.593Z,99772.84
2023-01-30T04:38:34.981Z,99770.99
2023-01-30T04:39:43.942Z,99770.09
2023-01-30T04:40:55.512Z,99770.03
2023-01-30T04:42:04.612Z,99767.39
2023-01-30T04:43:15.781Z,99762.95
2023-01-30T04:44:35.555Z,99761.99
2023-01-30T04:45:53.538Z,99759.22
2023-01-30T04:47:02.388Z,99763.55
2023-01-30T04:48:11.965Z,99754.78
2023-01-30T04:49:21.812Z,99753.98
2023-01-30T04:50:31.490Z,99750.45
2023-01-30T04:51:40.148Z,99753.94
2023-01-30T04:52:49.359Z,99754.73
2023-01-30T04:55:14.029Z,99745.48
2023-01-30T04:56:22.869Z,99747.46
2023-01-30T04:57:32.683Z,99746.55
2023-01-30T04:58:41.717Z,99749.33
2023-01-30T04:59:52.268Z,99749.44
2023-01-30T05:01:23.559Z,99747.81
2023-01-30T05:02:33.629Z,99746.46
2023-01-30T05:03:43.163Z,99757.22
2023-01-30T05:06:07.961Z,99744.78
2023-01-30T05:07:18.740Z,99744.27
2023-01-30T05:08:27.640Z,99742.70
2023-01-30T05:09:36.632Z,99743.42
2023-01-30T05:10:45.155Z,99749.37
2023-01-30T05:11:54.734Z,99740.73
2023-01-30T05:14:21.006Z,99723.38
2023-01-30T05:15:29.840Z,99729.67
2023-01-30T05:16:38.908Z,99733.09
2023-01-30T05:17:48.590Z,99731.59
2023-01-30T05:18:57.610Z,99728.94
2023-01-30T05:20:08.900Z,99734.09
2023-01-30T05:21:22.078Z,99723.48
2023-01-30T05:22:33.247Z,99726.86
2023-01-30T05:23:42.941Z,99726.06
2023-01-30T05:24:52.181Z,99724.33
2023-01-30T05:26:01.603Z,99727.94
2023-01-30T05:27:11.293Z,99721.02
2023-01-30T05:28:20.366Z,99724.59
2023-01-30T05:29:28.973Z,99720.89
2023-01-30T05:30:38.870Z,99723.92
2023-01-30T05:31:49.583Z,99718.59
2023-01-30T05:32:58.714Z,99714.94
2023-01-30T05:35:24.166Z,99718.54
2023-01-30T05:36:34.834Z,99715.21
2023-01-30T05:37:43.339Z,99716.84
2023-01-30T05:38:52.393Z,99722.02
2023-01-30T05:40:00.917Z,99721.05
2023-01-30T05:41:12.316Z,99713.18
2023-01-30T05:42:21.367Z,99721.00
2023-01-30T05:43:31.977Z,99712.91
2023-01-30T05:44:41.779Z,99706.55
2023-01-30T05:45:56.232Z,99700.11
2023-01-30T05:47:04.873Z,99702.58
2023-01-30T05:48:13.851Z,99699.77
2023-01-30T05:49:23.373Z,99698.80
2023-01-30T05:50:34.428Z,99702.09
2023-01-30T05:51:43.975Z,99689.66
2023-01-30T05:52:53.105Z,99694.88
2023-01-30T05:54:01.627Z,99689.47
2023-01-30T05:55:10.243Z,99687.61
2023-01-30T05:56:20.345Z,99684.91
2023-01-30T05:57:29.365Z,99688.44
2023-01-30T05:58:38.830Z,99681.41
2023-01-30T06:01:19.225Z,99679.23
2023-01-30T06:02:40.721Z,99682.18
2023-01-30T06:07:20.811Z,99685.44
2023-01-30T06:08:36.098Z,99691.73
2023-01-30T06:09:54.421Z,99676.83
2023-01-30T06:11:06.095Z,99681.36
2023-01-30T06:12:14.762Z,99683.94
2023-01-30T06:13:23.307Z,99682.27
2023-01-30T06:14:32.911Z,99680.63
2023-01-30T06:15:41.515Z,99685.09
2023-01-30T06:16:51.237Z,99682.56
2023-01-30T06:18:02.675Z,99673.80
2023-01-30T06:19:13.080Z,99673.77
2023-01-30T06:20:22.377Z,99676.36
2023-01-30T06:21:35.535Z,99674.56
2023-01-30T06:22:44.297Z,99671.22
2023-01-30T06:23:55.157Z,99672.89
2023-01-30T06:25:05.329Z,99671.86
2023-01-30T06:26:15.077Z,99670.12
2023-01-30T06:27:26.457Z,99669.10
2023-01-30T06:28:36.737Z,99671.54
2023-01-30T06:29:46.903Z,99661.63
2023-01-30T06:30:56.180Z,99667.75
2023-01-30T06:32:07.030Z,99661.42
2023-01-30T06:33:21.677Z,99658.84
2023-01-30T06:34:30.286Z,99659.55
2023-01-30T06:36:58.175Z,99658.26
2023-01-30T06:38:10.931Z,99656.00
2023-01-30T06:39:19.307Z,99657.67
2023-01-30T06:40:27.940Z,99649.98
2023-01-30T06:41:43.625Z,99656.31
2023-01-30T06:42:55.221Z,99651.09
2023-01-30T06:44:04.567Z,99655.34
2023-01-30T06:45:15.074Z,99651.73
2023-01-30T06:46:23.830Z,99648.06
2023-01-30T06:47:33.604Z,99649.80
2023-01-30T06:49:58.904Z,99647.28
2023-01-30T06:52:22.603Z,99637.44
2023-01-30T06:53:32.401Z,99639.56
2023-01-30T06:54:42.584Z,99644.21
2023-01-30T06:55:51.896Z,99648.83
2023-01-30T06:57:02.851Z,99640.07
2023-01-30T06:58:15.164Z,99637.61
2023-01-30T06:59:25.115Z,99634.31
2023-01-30T07:00:35.442Z,99636.11
2023-01-30T07:01:44.557Z,99633.34
2023-01-30T07:02:53.163Z,99636.91
2023-01-30T07:04:01.739Z,99640.37
2023-01-30T07:05:11.536Z,99635.98
2023-01-30T07:06:21.068Z,99636.84
2023-01-30T07:07:31.212Z,99638.40
2023-01-30T07:08:41.144Z,99628.58
2023-01-30T07:10:06.927Z,99634.84
2023-01-30T07:11:05.103Z,99630.46
2023-01-30T07:12:13.440Z,99634.84
2023-01-30T07:13:22.031Z,99623.41
2023-01-30T07:14:32.391Z,99622.47
2023-01-30T07:15:42.025Z,99626.12
2023-01-30T07:16:52.010Z,99632.38
2023-01-30T07:18:01.682Z,99631.61
2023-01-30T07:19:10.600Z,99631.49
2023-01-30T07:20:20.186Z,99627.87
2023-01-30T07:21:28.725Z,99619.16
2023-01-30T07:22:41.064Z,99635.08
2023-01-30T07:23:49.581Z,99627.94
2023-01-30T07:24:58.222Z,99630.64
2023-01-30T07:26:08.028Z,99630.77
2023-01-30T07:27:17.461Z,99632.81
2023-01-30T07:28:26.435Z,99625.73
2023-01-30T07:30:53.919Z,99616.57
2023-01-30T07:32:04.075Z,99622.00
2023-01-30T07:33:12.807Z,99614.95
2023-01-30T07:34:21.747Z,99618.63
2023-01-30T07:35:31.999Z,99625.62
2023-01-30T07:36:41.430Z,99622.13
2023-01-30T07:37:53.350Z,99615.28
2023-01-30T07:39:02.657Z,99615.28
2023-01-30T07:40:14.269Z,99617.98
2023-01-30T07:41:23.976Z,99608.50
2023-01-30T07:43:49.784Z,99594.72
2023-01-30T07:44:59.690Z,99595.92
2023-01-30T07:46:08.570Z,99601.00
2023-01-30T07:48:33.944Z,99599.91
2023-01-30T07:49:43.581Z,99597.87
2023-01-30T07:50:57.424Z,99603.64
2023-01-30T07:52:07.069Z,99603.70
2023-01-30T07:53:18.297Z,99598.24
2023-01-30T07:54:26.811Z,99592.11
2023-01-30T07:55:35.834Z,99593.92
2023-01-30T07:56:44.834Z,99590.96
2023-01-30T07:57:56.382Z,99580.20
2023-01-30T07:59:06.376Z,99579.13
2023-01-30T08:00:16.983Z,99577.23
2023-01-30T08:01:26.890Z,99579.03
2023-01-30T08:03:51.452Z,99577.48
2023-01-30T08:05:01.641Z,99571.50
2023-01-30T08:06:10.690Z,99576.73
2023-01-30T08:07:19.946Z,99572.34
2023-01-30T08:08:28.772Z,99573.32
2023-01-30T08:09:37.950Z,99561.70
2023-01-30T08:10:49.447Z,99560.86
2023-01-30T08:11:58.435Z,99556.48
2023-01-30T08:13:07.098Z,99557.30
2023-01-30T08:15:34.021Z,99552.08
2023-01-30T08:18:00.221Z,99557.97
2023-01-30T08:19:09.438Z,99556.36
2023-01-30T08:20:18.854Z,99553.63
2023-01-30T08:21:27.904Z,99547.45
2023-01-30T08:22:36.903Z,99551.89
2023-01-30T08:23:45.826Z,99551.20
2023-01-30T08:24:55.418Z,99551.07
2023-01-30T08:26:05.724Z,99543.95
2023-01-30T08:28:31.461Z,99537.72
2023-01-30T08:29:41.203Z,99533.89
2023-01-30T08:30:52.054Z,99529.45
2023-01-30T08:32:03.033Z,99527.39
2023-01-30T08:33:12.087Z,99527.27
2023-01-30T08:35:35.500Z,99519.56
2023-01-30T08:36:47.074Z,99519.91
2023-01-30T08:38:06.357Z,99518.42
2023-01-30T08:39:22.606Z,99522.61
2023-01-30T08:40:32.305Z,99513.89
2023-01-30T08:41:42.920Z,99516.28
2023-01-30T08:42:52.827Z,99513.52
2023-01-30T08:44:01.367Z,99516.13
2023-01-30T08:45:10.760Z,99515.12
2023-01-30T08:46:24.063Z,99521.98
2023-01-30T08:47:35.672Z,99508.43
2023-01-30T08:48:49.962Z,99517.47
2023-01-30T08:49:57.390Z,99512.25
2023-01-30T08:51:07.214Z,99514.57
2023-01-30T08:52:15.823Z,99508.14
2023-01-30T08:54:46.491Z,99493.46
2023-01-30T08:55:55.383Z,99502.78
2023-01-30T08:57:06.331Z,99500.00
2023-01-30T08:58:16.374Z,99495.14
2023-01-30T08:59:24.893Z,99492.13
2023-01-30T09:00:33.861Z,99500.56
2023-01-30T09:01:45.369Z,99494.35
2023-01-30T09:02:56.706Z,99489.61
2023-01-30T09:04:05.687Z,99491.37
2023-01-30T09:05:14.844Z,99493.23
2023-01-30T09:06:26.087Z,99482.17
2023-01-30T09:07:35.126Z,99485.52
2023-01-30T09:08:44.124Z,99478.47
2023-01-30T09:09:52.981Z,99473.47
2023-01-30T09:11:05.517Z,99478.73
2023-01-30T09:12:14.991Z,99473.66
2023-01-30T09:13:24.043Z,99469.16
2023-01-30T09:14:34.717Z,99465.10
2023-01-30T09:15:45.217Z,99465.59
2023-01-30T09:16:56.528Z,99455.65
2023-01-30T09:18:06.325Z,99460.19
2023-01-30T09:20:29.888Z,99454.52
2023-01-30T09:21:38.853Z,99452.61
2023-01-30T09:22:47.926Z,99459.19
2023-01-30T09:23:57.594Z,99451.59
2023-01-30T09:25:07.784Z,99454.89
2023-01-30T09:26:17.066Z,99456.38
2023-01-30T09:27:25.765Z,99450.65
2023-01-30T09:28:36.663Z,99443.41
2023-01-30T09:29:45.526Z,99456.40
2023-01-30T09:30:58.167Z,99445.76
2023-01-30T09:32:07.110Z,99437.98
2023-01-30T09:34:39.439Z,99434.55
2023-01-30T09:35:48.987Z,99432.03
2023-01-30T09:37:05.103Z,99434.55
2023-01-30T09:38:13.930Z,99432.03
2023-01-30T09:39:23.404Z,99425.19
2023-01-30T09:40:34.377Z,99431.22
2023-01-30T13:51:48.113Z,99070.14
2023-01-30T13:53:24.780Z,99066.66
2023-01-30T13:54:54.074Z,99071.51
2023-01-30T13:57:39.898Z,99051.62
2023-01-30T13:58:52.161Z,99048.33
2023-01-30T14:00:23.131Z,99048.47
2023-01-30T14:01:50.474Z,99049.47
2023-01-30T14:03:14.121Z,99052.62
2023-01-30T14:04:44.783Z,99054.27
2023-01-30T14:06:00.815Z,99045.88
2023-01-30T14:07:22.719Z,99058.69
2023-01-30T14:08:50.335Z,99046.88
2023-01-30T14:10:11.978Z,99050.47
2023-01-30T14:11:45.876Z,99046.10
2023-01-30T14:12:55.823Z,99045.19
2023-01-30T14:15:59.268Z,99032.55
2023-01-30T14:17:11.865Z,99042.48
2023-01-30T14:18:35.851Z,99031.77
2023-01-30T14:20:04.965Z,99034.19
2023-01-30T14:21:26.774Z,99027.89
2023-01-30T14:22:55.338Z,99029.45
2023-01-30T14:24:07.341Z,99028.45
2023-01-30T14:26:51.807Z,99019.82
2023-01-30T14:28:07.576Z,99021.27
2023-01-30T14:29:41.769Z,99022.92
2023-01-30T14:30:53.761Z,99024.72
2023-01-30T14:32:03.731Z,99011.24
2023-01-30T14:33:25.214Z,99016.83
2023-01-30T14:34:40.660Z,99016.14
2023-01-30T14:36:06.848Z,99014.05
2023-01-30T14:39:01.117Z,99013.65
2023-01-30T14:40:28.307Z,99010.84
2023-01-30T14:41:38.093Z,99015.94
2023-01-30T14:43:07.113Z,99016.66
2023-01-30T14:44:19.756Z,99015.66
2023-01-30T14:45:48.850Z,99002.19
2023-01-30T14:46:58.637Z,99015.34
2023-01-30T14:48:29.437Z,99010.92
2023-01-30T14:49:40.119Z,99006.63
2023-01-30T14:50:49.231Z,99005.47
2023-01-30T14:51:59.618Z,99004.47
2023-01-30T14:54:41.037Z,99009.52
2023-01-30T14:55:41.517Z,99018.78
2023-01-30T14:56:58.562Z,99009.92
2023-01-30T14:59:30.208Z,99005.02
2023-01-30T15:00:39.764Z,99001.90
2023-01-30T15:02:15.440Z,98996.52
2023-01-30T15:03:24.614Z,98999.25
2023-01-30T15:05:04.727Z,98990.43
2023-01-30T15:06:14.379Z,99004.38
2023-01-30T15:09:03.050Z,98990.61
2023-01-30T15:10:34.301Z,98994.56
2023-01-30T15:11:45.135Z,98994.80
2023-01-30T15:13:18.822Z,99002.83
2023-01-30T15:14:31.945Z,98996.52
2023-01-30T15:15:59.668Z,98997.20
2023-01-30T15:18:43.003Z,98991.30
2023-01-30T15:21:31.119Z,98986.80
2023-01-30T15:22:44.376Z,98992.47
2023-01-30T15:24:06.720Z,98989.81
2023-01-30T15:25:22.052Z,98996.84
2023-01-30T15:28:27.223Z,98995.29
2023-01-30T15:29:57.150Z,98987.97
2023-01-30T15:31:09.952Z,98999.77
2023-01-30T15:32:25.490Z,98990.91
2023-01-30T15:33:44.057Z,98997.92
2023-01-30T15:34:56.222Z,98990.83
2023-01-30T15:36:27.081Z,98989.05
2023-01-30T15:37:49.608Z,98989.05
2023-01-30T15:39:02.295Z,98983.67
2023-01-30T15:41:42.937Z,98982.36
2023-01-30T15:44:49.143Z,98976.74
2023-01-30T15:47:27.187Z,98986.25
2023-01-30T15:48:49.554Z,98984.84
2023-01-30T15:50:07.481Z,98983.84
2023-01-30T15:51:19.251Z,98984.52
2023-01-30T15:54:01.449Z,98972.22
2023-01-30T15:55:17.619Z,98985.92
2023-01-30T16:39:37.991Z,98962.80
2023-01-30T16:40:47.260Z,98964.27
2023-01-30T16:41:57.254Z,98962.55
2023-01-30T16:44:36.740Z,98959.05
2023-01-30T16:45:55.367Z,98964.35
2023-01-30T16:47:08.437Z,98960.78
2023-01-30T16:48:23.696Z,98959.91
2023-01-30T16:49:40.234Z,98956.79
2023-01-30T16:52:28.580Z,98951.11
2023-01-30T16:53:40.771Z,98959.52
2023-01-30T16:54:54.193Z,98957.88
2023-01-30T16:56:11.056Z,98961.41
2023-01-30T16:58:55.099Z,98961.00
2023-01-30T17:00:25.640Z,98958.05
2023-01-30T17:01:38.813Z,98959.14
2023-01-30T17:02:51.016Z,98960.94
2023-01-30T17:04:02.640Z,98958.11
2023-01-30T17:06:42.569Z,98950.97
2023-01-30T17:07:53.286Z,98949.25
2023-01-30T17:09:04.711Z,98948.22
2023-01-30T17:11:59.324Z,98946.84
2023-01-30T17:14:52.827Z,98946.30
2023-01-30T17:16:19.693Z,98952.05
2023-01-30T17:17:28.242Z,98949.09
2023-01-30T17:18:36.853Z,98950.66
2023-01-30T17:19:48.239Z,98947.84
2023-01-30T17:20:57.403Z,98951.26
2023-01-30T17:23:27.536Z,98946.69
2023-01-30T17:24:36.192Z,98944.42
2023-01-30T17:25:47.563Z,98949.80
2023-01-30T17:28:23.274Z,98944.72
2023-01-30T17:29:47.336Z,98952.45
2023-01-30T17:30:45.309Z,98951.97
2023-01-30T17:31:54.677Z,98946.52
2023-01-30T17:33:04.565Z,98940.38
2023-01-30T17:34:13.444Z,98936.17
2023-01-30T17:35:23.319Z,98939.75
2023-01-30T17:36:33.485Z,98937.57
2023-01-30T17:37:45.254Z,98933.91
2023-01-30T17:38:55.016Z,98934.84
2023-01-30T17:41:31.980Z,98931.19
2023-01-30T17:42:40.880Z,98931.73
2023-01-30T17:43:51.051Z,98921.63
2023-01-30T17:44:59.631Z,98923.48
2023-01-30T17:46:09.667Z,98931.20
2023-01-30T17:47:18.285Z,98931.12
2023-01-30T17:48:27.808Z,98936.50
2023-01-30T17:49:37.766Z,98932.73
2023-01-30T17:50:46.436Z,98940.46
2023-01-30T17:53:11.007Z,98931.48
2023-01-30T17:54:20.383Z,98932.74
2023-01-30T17:55:29.985Z,98935.39
2023-01-30T17:56:41.601Z,98931.81
2023-01-30T17:57:51.338Z,98936.19
2023-01-30T17:59:01.116Z,98935.14
2023-01-30T18:00:17.784Z,98933.16
2023-01-30T18:01:26.833Z,98937.89
2023-01-30T18:02:35.873Z,98935.46
2023-01-30T18:03:45.184Z,98937.81
2023-01-30T18:04:54.403Z,98949.03
2023-01-30T18:06:03.507Z,98938.37
2023-01-30T22:40:23.249Z,98864.82
2023-01-30T22:41:36.239Z,98862.25
2023-01-30T22:42:48.375Z,98861.12
2023-01-30T22:44:00.541Z,98854.78
2023-01-30T22:45:10.341Z,98855.08
2023-01-30T22:46:20.533Z,98855.95
2023-01-30T22:47:30.051Z,98863.31
2023-01-30T22:48:40.404Z,98863.59
2023-01-30T22:49:50.057Z,98856.73
2023-01-30T22:51:14.517Z,98855.23
2023-01-30T22:52:23.707Z,98856.28
2023-01-30T22:53:40.620Z,98858.94
2023-01-30T22:54:50.323Z,98856.48
2023-01-30T22:56:04.061Z,98850.49
2023-01-30T22:57:12.562Z,98854.20
2023-01-30T22:58:22.848Z,98862.23
2023-01-30T22:59:32.791Z,98856.98
2023-01-30T23:00:42.685Z,98857.27
2023-01-30T23:01:52.186Z,98857.63
2023-01-30T23:03:01.238Z,98859.71
2023-01-30T23:05:31.801Z,98847.61
2023-01-30T23:06:42.397Z,98848.72
2023-01-30T23:07:52.093Z,98857.55
2023-01-30T23:09:01.595Z,98860.28
2023-01-30T23:10:11.231Z,98854.95
2023-01-30T23:11:23.527Z,98851.59
2023-01-30T23:12:51.920Z,98856.31
2023-01-30T23:14:07.636Z,98853.13
2023-01-30T23:15:16.511Z,98849.19
2023-01-30T23:16:27.306Z,98852.84
2023-01-30T23:17:54.200Z,98853.77
2023-01-30T23:19:04.930Z,98850.28
2023-01-30T23:20:14.926Z,98843.74
2023-01-30T23:22:43.311Z,98843.57
2023-01-30T23:23:55.650Z,98852.64
2023-01-30T23:25:05.276Z,98852.48
2023-01-30T23:26:15.297Z,98851.59
2023-01-30T23:27:24.652Z,98855.29
2023-01-30T23:28:34.719Z,98851.09
2023-01-30T23:29:43.678Z,98848.58
2023-01-30T23:30:53.421Z,98837.77
2023-01-30T23:32:03.841Z,98845.26
2023-01-30T23:33:13.542Z,98846.44
2023-01-30T23:34:23.932Z,98845.64
2023-01-30T23:35:36.852Z,98838.41
2023-01-30T23:36:47.615Z,98839.34
2023-01-30T23:38:15.578Z,98842.37
2023-01-30T23:39:24.491Z,98837.87
2023-01-30T23:40:33.664Z,98840.27
2023-01-30T23:41:43.208Z,98842.23
2023-01-30T23:42:52.330Z,98849.46
2023-01-30T23:44:02.009Z,98848.45
2023-01-30T23:45:11.441Z,98849.00
